Time;durP1;ratioP1;P1;durP2;ratioP2;P2;SDS_P1;SDS_P2;PMS_P1;PMS_P2;Temp;Humidity;BMP_temperature;BMP_pressure;BME280_temperature;BME280_humidity;BME280_pressure;Samples;Min_cycle;Max_cycle;Signal;HPM_P1;HPM_P2
2020/12/12 00:00:58;;;;;;;48.72;26.00;;;;;;;7.40;54.50;99349.69;5007598;28;96960;-73
2020/12/12 00:03:27;;;;;;;68.15;33.80;;;;;;;7.69;53.43;99350.91;5005030;28;96859;-74
2020/12/12 00:05:54;;;;;;;63.85;35.00;;;;;;;7.82;52.65;99346.25;5003435;28;97160;-74
2020/12/12 00:08:22;;;;;;;67.13;34.47;;;;;;;7.89;52.73;99356.13;5003656;28;97864;-73
2020/12/12 00:10:50;;;;;;;64.47;32.67;;;;;;;7.94;52.34;99346.72;5006509;28;97329;-74
2020/12/12 00:13:18;;;;;;;67.57;34.20;;;;;;;7.99;52.09;99353.03;5006196;28;96789;-73
2020/12/12 00:15:45;;;;;;;66.40;33.85;;;;;;;8.01;52.20;99348.75;5002416;28;100057;-74
2020/12/12 00:18:12;;;;;;;64.00;34.93;;;;;;;8.06;51.97;99348.94;5002541;28;97828;-74
2020/12/12 00:20:41;;;;;;;67.13;34.47;;;;;;;8.07;52.16;99349.00;5003318;28;97258;-74
2020/12/12 00:23:08;;;;;;;63.90;33.17;;;;;;;8.09;51.75;99339.50;5005351;28;97265;-74
2020/12/12 00:25:54;;;;;;;47.10;25.13;;;;;;;7.79;53.00;99351.34;5005282;28;97301;-74
2020/12/12 00:28:21;;;;;;;48.33;24.48;;;;;;;7.65;53.33;99347.25;5003671;28;98098;-74
2020/12/12 00:30:48;;;;;;;50.95;24.40;;;;;;;7.57;53.39;99348.66;5007481;28;97468;-75
2020/12/12 00:33:16;;;;;;;46.25;23.98;;;;;;;7.49;53.76;99352.69;5007106;28;96782;-74
2020/12/12 00:35:44;;;;;;;53.08;23.40;;;;;;;7.43;53.74;99351.53;5003438;28;96875;-74
2020/12/12 00:38:12;;;;;;;63.10;33.40;;;;;;;7.70;52.72;99345.72;5001292;28;99186;-74
2020/12/12 00:40:39;;;;;;;63.13;33.05;;;;;;;7.80;52.76;99353.13;5003323;28;97634;-74
2020/12/12 00:43:07;;;;;;;61.25;33.85;;;;;;;7.85;52.42;99358.53;5005489;28;97175;-74
2020/12/12 00:45:34;;;;;;;62.78;33.08;;;;;;;7.89;52.45;99350.00;5001866;28;98113;-74
2020/12/12 00:48:02;;;;;;;52.65;25.92;;;;;;;7.61;53.21;99353.19;5006595;28;100005;-75
2020/12/12 00:50:29;;;;;;;50.67;24.92;;;;;;;7.50;53.26;99358.81;4987400;28;97420;-74
2020/12/12 00:53:17;;;;;;;47.15;23.73;;;;;;;7.42;53.63;99350.66;5005554;28;97224;-74
2020/12/12 00:56:03;;;;;;;51.90;23.52;;;;;;;7.33;53.72;99346.75;4996900;28;99044;-74
2020/12/12 00:58:30;;;;;;;47.47;24.73;;;;;;;7.29;53.69;99355.28;5003836;28;97762;-75
2020/12/12 01:00:58;;;;;;;49.78;23.40;;;;;;;7.24;53.91;99352.50;5006851;28;97246;-74
2020/12/12 01:03:25;;;;;;;61.70;31.60;;;;;;;7.55;53.15;99350.34;5002857;28;96894;-74
2020/12/12 01:05:53;;;;;;;59.33;31.88;;;;;;;7.65;52.74;99347.25;5004888;28;100921;-75
2020/12/12 01:08:22;;;;;;;49.08;26.50;;;;;;;7.45;53.45;99342.94;5005476;28;98397;-74
2020/12/12 01:10:49;;;;;;;47.50;24.42;;;;;;;7.37;53.50;99353.91;5014781;22;99411;-74
2020/12/12 01:13:16;;;;;;;60.30;32.95;;;;;;;7.66;52.77;99345.56;4996806;28;96977;-73
2020/12/12 01:15:44;;;;;;;62.13;32.65;;;;;;;7.80;52.69;99352.22;4998399;28;99533;-74
2020/12/12 01:18:12;;;;;;;63.10;32.63;;;;;;;7.89;52.30;99353.50;4998505;28;99063;-73
2020/12/12 01:20:57;;;;;;;48.63;24.08;;;;;;;7.63;53.46;99354.16;4989323;28;96990;-74
2020/12/12 01:23:25;;;;;;;56.77;31.53;;;;;;;7.88;52.39;99354.31;4985595;28;97372;-74
2020/12/12 01:25:53;;;;;;;60.40;31.77;;;;;;;7.97;52.16;99356.44;4974844;28;100970;-74
2020/12/12 01:28:21;;;;;;;58.03;31.50;;;;;;;8.01;51.94;99348.75;4980274;28;100375;-75
2020/12/12 01:30:52;;;;;;;59.78;32.30;;;;;;;8.07;51.81;99343.78;4984763;28;97268;-74
2020/12/12 01:33:20;;;;;;;61.47;32.57;;;;;;;8.11;51.94;99348.31;4984900;28;97646;-74
2020/12/12 01:35:48;;;;;;;61.63;31.67;;;;;;;8.15;51.71;99352.84;4983273;28;97945;-74
2020/12/12 01:38:16;;;;;;;61.13;32.22;;;;;;;8.19;51.67;99349.47;4975528;28;98942;-74
2020/12/12 01:40:44;;;;;;;61.03;31.67;;;;;;;8.23;51.69;99354.00;4983476;28;96719;-74
2020/12/12 01:43:12;;;;;;;57.13;30.83;;;;;;;8.29;51.28;99349.88;4974449;28;97349;-74
2020/12/12 01:45:40;;;;;;;59.00;31.63;;;;;;;8.32;51.34;99352.63;4970122;28;98114;-75
2020/12/12 01:48:08;;;;;;;59.55;32.58;;;;;;;8.33;51.08;99352.69;4970343;28;101232;-73
2020/12/12 01:50:36;;;;;;;59.33;33.25;;;;;;;8.34;50.95;99357.06;4973975;28;97457;-73
2020/12/12 01:53:04;;;;;;;60.97;32.47;;;;;;;8.37;51.04;99348.47;4984706;28;97353;-73
2020/12/12 01:55:31;;;;;;;60.83;32.33;;;;;;;8.37;50.75;99349.34;4981958;28;99304;-74
2020/12/12 01:58:00;;;;;;;56.87;31.17;;;;;;;8.38;50.96;99345.00;4977910;28;98031;-74
2020/12/12 02:00:28;;;;;;;58.45;31.77;;;;;;;8.40;51.03;99344.22;4983609;28;97047;-74
2020/12/12 02:02:57;;;;;;;59.33;32.17;;;;;;;8.42;51.08;99346.91;4984338;28;97608;-74
2020/12/12 02:05:38;;;;;;;58.67;32.83;;;;;;;8.45;50.85;99339.19;4976635;28;97877;-74
2020/12/12 02:08:11;;;;;;;59.40;32.15;;;;;;;8.45;51.00;99349.66;4993596;28;99310;-75
2020/12/12 02:10:40;;;;;;;58.10;31.63;;;;;;;8.48;50.85;99340.19;4974915;28;97041;-74
2020/12/12 02:13:09;;;;;;;59.80;30.63;;;;;;;8.48;50.68;99331.44;4985404;28;97196;-74
2020/12/12 02:15:37;;;;;;;53.53;30.20;;;;;;;8.52;50.56;99333.34;4978969;28;97887;-73
2020/12/12 02:18:05;;;;;;;53.60;30.13;;;;;;;8.53;50.37;99335.13;4979388;28;99067;-74
2020/12/12 02:20:32;;;;;;;54.35;30.75;;;;;;;8.56;50.39;99330.03;4976211;28;97438;-75
2020/12/12 02:23:01;;;;;;;44.08;24.00;;;;;;;8.26;51.54;99334.06;4982303;28;97392;-75
2020/12/12 02:25:29;;;;;;;39.50;20.92;;;;;;;8.09;51.82;99333.38;4985184;28;99585;-75
2020/12/12 02:27:57;;;;;;;40.33;20.98;;;;;;;7.98;52.05;99332.97;4982416;28;98094;-75
2020/12/12 02:30:25;;;;;;;41.38;21.70;;;;;;;7.88;52.28;99335.16;4968528;28;96829;-74
2020/12/12 02:32:52;;;;;;;42.83;21.40;;;;;;;7.80;52.07;99331.31;4977513;28;97485;-73
2020/12/12 02:35:20;;;;;;;54.92;28.88;;;;;;;8.02;52.06;99333.97;4982861;28;97696;-74
2020/12/12 02:37:47;;;;;;;51.22;28.90;;;;;;;8.13;51.61;99332.66;4978550;28;98031;-74
2020/12/12 02:40:15;;;;;;;53.75;30.67;;;;;;;8.20;51.29;99330.34;4984889;28;97059;-73
2020/12/12 02:42:42;;;;;;;52.00;30.00;;;;;;;8.25;51.32;99330.56;4984549;28;96914;-73
2020/12/12 02:45:10;;;;;;;52.65;29.63;;;;;;;8.30;51.17;99328.13;4983065;28;98025;-74
2020/12/12 02:47:40;;;;;;;41.45;22.35;;;;;;;8.03;52.05;99325.28;4982800;28;98175;-75
2020/12/12 02:50:10;;;;;;;40.70;20.77;;;;;;;7.89;52.53;99322.13;4983928;28;96915;-73
2020/12/12 02:52:38;;;;;;;37.08;20.77;;;;;;;7.81;52.51;99318.31;4988262;28;97278;-73
2020/12/12 02:55:07;;;;;;;44.63;20.42;;;;;;;7.75;52.93;99320.69;4983422;28;99215;-71
2020/12/12 02:57:37;;;;;;;41.00;20.92;;;;;;;7.71;52.72;99321.41;4977067;28;99038;-74
2020/12/12 03:00:07;;;;;;;37.47;19.65;;;;;;;7.68;53.02;99321.25;4988887;28;96691;-72
2020/12/12 03:02:53;;;;;;;49.58;27.52;;;;;;;7.92;52.49;99322.25;4976593;28;97749;-70
2020/12/12 03:05:21;;;;;;;48.47;28.05;;;;;;;8.07;52.12;99324.56;4985397;28;97779;-73
2020/12/12 03:07:48;;;;;;;49.70;28.48;;;;;;;8.17;51.99;99321.50;4985045;28;98953;-72
2020/12/12 03:10:16;;;;;;;52.03;28.73;;;;;;;8.26;51.58;99321.00;4984444;28;97819;-73
2020/12/12 03:12:44;;;;;;;49.05;27.60;;;;;;;8.32;51.57;99303.78;4973111;28;97102;-72
2020/12/12 03:15:12;;;;;;;50.45;28.70;;;;;;;8.38;51.32;99314.50;4975509;28;101054;-74
2020/12/12 03:17:39;;;;;;;49.63;28.60;;;;;;;8.43;51.33;99322.53;4980425;28;98823;-72
2020/12/12 03:20:07;;;;;;;48.78;28.95;;;;;;;8.47;51.15;99316.56;4979119;28;97151;-72
2020/12/12 03:22:35;;;;;;;47.92;28.25;;;;;;;8.52;51.00;99315.03;4978212;28;96820;-73
2020/12/12 03:25:04;;;;;;;49.70;28.38;;;;;;;8.54;50.93;99322.09;4981039;28;97870;-73
2020/12/12 03:27:31;;;;;;;47.75;27.52;;;;;;;8.55;50.95;99322.97;4984357;28;99049;-73
2020/12/12 03:29:59;;;;;;;46.38;27.73;;;;;;;8.56;51.03;99319.56;4987489;28;97168;-72
2020/12/12 03:32:31;;;;;;;47.45;27.60;;;;;;;8.59;50.76;99319.66;4979834;28;96660;-73
2020/12/12 03:34:59;;;;;;;47.00;26.80;;;;;;;8.59;50.70;99320.56;4982943;28;99238;-73
2020/12/12 03:37:27;;;;;;;46.20;26.63;;;;;;;8.67;50.89;99326.03;4982633;28;98112;-74
2020/12/12 03:39:55;;;;;;;43.80;26.37;;;;;;;8.65;50.48;99328.63;4973875;28;97072;-73
2020/12/12 03:42:22;;;;;;;49.03;27.00;;;;;;;8.67;50.30;99326.03;4981103;28;96871;-73
2020/12/12 03:45:09;;;;;;;47.50;26.75;;;;;;;8.68;50.37;99330.47;4978266;28;97857;-73
2020/12/12 03:47:55;;;;;;;46.40;27.98;;;;;;;8.69;50.20;99337.47;5001226;28;99486;-72
2020/12/12 03:50:27;;;;;;;42.40;26.92;;;;;;;8.71;50.41;99335.81;4980225;28;97257;-73
2020/12/12 03:52:55;;;;;;;43.67;26.88;;;;;;;8.73;50.14;99328.91;4981203;28;96845;-72
2020/12/12 03:55:41;;;;;;;44.50;26.47;;;;;;;8.77;50.21;99336.94;4974355;28;97557;-72
2020/12/12 03:58:09;;;;;;;42.28;26.67;;;;;;;8.78;50.02;99336.09;4987079;28;99044;-73
2020/12/12 04:00:37;;;;;;;44.33;26.83;;;;;;;8.81;49.87;99333.56;4985739;28;96845;-73
2020/12/12 04:03:04;;;;;;;45.92;27.40;;;;;;;8.86;50.15;99334.66;4984064;28;97193;-73
2020/12/12 04:05:32;;;;;;;41.10;25.58;;;;;;;8.88;49.61;99345.19;4980366;28;97980;-73
2020/12/12 04:08:00;;;;;;;42.92;25.77;;;;;;;8.91;49.94;99333.09;4983143;28;98158;-72
2020/12/12 04:10:28;;;;;;;44.10;26.02;;;;;;;8.94;50.12;99341.03;4986721;28;97491;-73
2020/12/12 04:12:55;;;;;;;42.42;25.42;;;;;;;8.97;49.76;99338.56;4980802;28;97193;-73
2020/12/12 04:15:23;;;;;;;41.10;25.17;;;;;;;8.97;50.07;99335.03;4970570;28;98427;-73
2020/12/12 04:17:51;;;;;;;42.53;25.07;;;;;;;8.96;49.89;99338.47;4981294;28;97983;-73
2020/12/12 04:20:18;;;;;;;44.00;26.23;;;;;;;8.95;49.93;99339.31;4986266;28;97100;-74
2020/12/12 04:22:46;;;;;;;43.67;26.42;;;;;;;8.92;49.63;99342.72;4985106;28;96973;-73
2020/12/12 04:25:13;;;;;;;40.78;25.58;;;;;;;8.92;49.96;99339.22;4984477;28;97861;-73
2020/12/12 04:27:41;;;;;;;41.40;25.40;;;;;;;8.93;49.41;99338.38;4983619;28;97773;-74
2020/12/12 04:30:09;;;;;;;43.72;25.15;;;;;;;8.90;49.51;99330.41;4982449;28;97398;-73
2020/12/12 04:32:36;;;;;;;42.38;25.92;;;;;;;8.89;49.38;99337.38;4984419;28;97924;-73
2020/12/12 04:35:05;;;;;;;43.70;25.40;;;;;;;8.90;50.10;99330.41;4977875;28;99317;-73
2020/12/12 04:37:32;;;;;;;43.87;26.60;;;;;;;8.90;49.47;99336.56;4978022;28;98219;-72
2020/12/12 04:40:00;;;;;;;40.70;24.80;;;;;;;8.90;49.40;99331.31;4976217;28;96724;-73
2020/12/12 04:42:29;;;;;;;43.92;26.30;;;;;;;8.92;49.66;99326.13;4982920;28;97206;-73
2020/12/12 04:44:56;;;;;;;48.13;26.80;;;;;;;8.91;49.66;99330.47;4982499;28;97916;-73
2020/12/12 04:47:25;;;;;;;40.17;25.40;;;;;;;8.91;49.78;99329.56;4984928;28;97965;-73
2020/12/12 04:49:52;;;;;;;42.90;25.73;;;;;;;8.92;49.81;99331.38;4981622;28;97407;-72
2020/12/12 04:52:23;;;;;;;45.25;26.67;;;;;;;8.93;49.65;99325.28;4985716;28;97133;-72
2020/12/12 04:54:52;;;;;;;35.90;20.20;;;;;;;8.59;50.46;99325.78;4974557;28;97908;-73
2020/12/12 04:57:19;;;;;;;34.28;18.77;;;;;;;8.42;51.02;99328.59;4971771;28;99242;-73
2020/12/12 04:59:48;;;;;;;41.43;25.83;;;;;;;8.58;50.60;99329.22;4980638;28;96652;-73
2020/12/12 05:02:35;;;;;;;43.80;26.65;;;;;;;8.66;50.72;99314.72;4979356;28;98712;-73
2020/12/12 05:05:21;;;;;;;43.05;25.63;;;;;;;8.71;50.55;99328.84;4980742;28;97657;-72
2020/12/12 05:07:49;;;;;;;44.67;26.33;;;;;;;8.75;50.66;99328.13;4976140;28;98023;-72
2020/12/12 05:10:16;;;;;;;43.63;25.58;;;;;;;8.78;50.42;99322.09;4978090;28;97846;-72
2020/12/12 05:12:44;;;;;;;43.27;25.77;;;;;;;8.79;50.39;99323.91;4980179;28;97345;-74
2020/12/12 05:15:11;;;;;;;45.70;26.15;;;;;;;8.81;50.54;99332.72;4983288;28;98443;-73
2020/12/12 05:17:46;;;;;;;38.22;20.52;;;;;;;8.48;51.24;99321.88;4983653;28;99372;-73
2020/12/12 05:20:32;;;;;;;36.60;20.23;;;;;;;8.35;51.51;99318.72;4982809;28;96858;-73
2020/12/12 05:23:00;;;;;;;34.03;19.20;;;;;;;8.26;51.85;99331.44;4980721;28;97195;-73
2020/12/12 05:25:28;;;;;;;33.25;19.80;;;;;;;8.17;51.83;99324.13;4982830;28;99294;-73
2020/12/12 05:27:56;;;;;;;29.95;18.13;;;;;;;8.10;52.19;99328.19;4978825;28;99240;-72
2020/12/12 05:30:23;;;;;;;36.33;18.83;;;;;;;8.06;52.18;99335.88;4972099;28;97225;-73
2020/12/12 05:32:50;;;;;;;32.40;18.55;;;;;;;8.01;52.58;99340.91;4985877;28;96694;-72
2020/12/12 05:35:18;;;;;;;41.35;24.58;;;;;;;8.23;52.13;99328.69;4977875;28;98019;-74
2020/12/12 05:37:45;;;;;;;43.35;25.83;;;;;;;8.37;52.04;99338.00;4985270;28;97846;-72
2020/12/12 05:40:14;;;;;;;40.58;25.63;;;;;;;8.50;51.38;99335.91;4985492;28;97787;-72
2020/12/12 05:42:43;;;;;;;41.53;25.67;;;;;;;8.59;51.31;99337.97;4985776;28;97319;-73
2020/12/12 05:45:10;;;;;;;40.72;26.52;;;;;;;8.65;51.38;99339.09;4975825;28;99028;-73
2020/12/12 05:47:38;;;;;;;41.07;25.80;;;;;;;8.71;51.61;99348.88;4986256;28;97857;-73
2020/12/12 05:50:05;;;;;;;40.92;26.05;;;;;;;8.73;51.09;99345.50;4980257;28;96831;-72
2020/12/12 05:52:34;;;;;;;39.92;26.08;;;;;;;8.76;51.43;99350.84;4987024;28;97071;-73
2020/12/12 05:55:02;;;;;;;39.65;25.35;;;;;;;8.79;50.89;99352.69;4987454;28;99028;-73
2020/12/12 05:57:31;;;;;;;38.70;24.83;;;;;;;8.82;51.03;99347.56;4979310;28;101835;-73
2020/12/12 05:59:59;;;;;;;40.45;25.38;;;;;;;8.86;50.99;99352.09;4979326;28;97175;-72
2020/12/12 06:02:27;;;;;;;39.28;24.58;;;;;;;8.92;51.07;99354.94;4979974;28;97333;-73
2020/12/12 06:04:57;;;;;;;40.60;25.23;;;;;;;8.96;50.70;99364.66;4977718;28;98516;-74
2020/12/12 06:07:27;;;;;;;37.55;24.33;;;;;;;8.99;51.11;99351.69;4983941;28;101700;-73
2020/12/12 06:09:58;;;;;;;37.77;25.23;;;;;;;9.02;51.00;99357.03;4981905;28;97525;-72
2020/12/12 06:12:48;;;;;;;39.47;24.65;;;;;;;9.02;50.70;99357.94;4982848;28;97224;-73
2020/12/12 06:15:18;;;;;;;39.00;24.88;;;;;;;9.04;50.80;99360.59;4983135;28;97839;-72
2020/12/12 06:18:08;;;;;;;29.00;19.20;;;;;;;8.78;51.12;99356.13;4981217;28;98213;-73
2020/12/12 06:20:39;;;;;;;37.47;24.17;;;;;;;8.93;51.10;99354.09;4988305;28;97383;-73
2020/12/12 06:23:07;;;;;;;38.45;24.05;;;;;;;8.97;50.98;99366.47;4987902;28;97113;-74
2020/12/12 06:25:34;;;;;;;38.90;24.70;;;;;;;8.97;50.90;99362.13;4986878;28;97800;-73
2020/12/12 06:28:04;;;;;;;39.42;24.65;;;;;;;8.97;51.28;99367.34;4986684;28;97897;-73
2020/12/12 06:30:32;;;;;;;38.42;24.33;;;;;;;9.00;50.81;99371.78;4983061;28;96918;-74
2020/12/12 06:33:01;;;;;;;38.42;24.67;;;;;;;9.00;50.86;99370.06;4987171;28;96765;-73
2020/12/12 06:35:32;;;;;;;38.03;24.88;;;;;;;9.00;50.80;99361.31;4986920;28;98867;-73
2020/12/12 06:38:21;;;;;;;39.42;24.45;;;;;;;8.97;51.01;99372.59;4983204;28;98124;-72
2020/12/12 06:40:50;;;;;;;40.13;25.13;;;;;;;8.99;51.28;99378.78;4986513;28;96926;-73
2020/12/12 06:43:33;;;;;;;40.40;24.40;;;;;;;8.99;51.22;99381.41;4984919;28;97775;-76
2020/12/12 06:46:02;;;;;;;39.60;24.43;;;;;;;9.01;50.91;99374.47;4978638;28;99005;-75
2020/12/12 06:48:30;;;;;;;37.75;23.95;;;;;;;9.05;51.67;99375.50;4983582;28;97790;-74
2020/12/12 06:50:59;;;;;;;36.58;23.73;;;;;;;9.06;51.44;99378.16;4980726;28;96675;-74
2020/12/12 06:53:27;;;;;;;36.88;25.10;;;;;;;9.09;51.15;99377.38;4985107;28;97173;-75
2020/12/12 06:56:09;;;;;;;37.42;24.83;;;;;;;9.08;50.78;99376.50;4978973;28;97765;-74
2020/12/12 06:58:38;;;;;;;37.53;24.65;;;;;;;9.08;51.43;99384.34;4982591;28;100887;-75
2020/12/12 07:01:28;;;;;;;38.35;24.55;;;;;;;9.03;51.12;99388.50;4977311;28;98424;-75
2020/12/12 07:04:00;;;;;;;39.20;24.98;;;;;;;9.00;51.38;99388.41;4970573;28;96897;-74
2020/12/12 07:06:29;;;;;;;37.93;25.00;;;;;;;8.99;51.36;99390.97;4972887;28;98120;-75
2020/12/12 07:09:01;;;;;;;38.70;25.73;;;;;;;9.00;51.32;99388.41;4982859;28;99318;-74
2020/12/12 07:11:31;;;;;;;40.30;26.50;;;;;;;9.01;51.04;99391.94;4979266;28;96967;-74
2020/12/12 07:14:01;;;;;;;38.28;25.38;;;;;;;9.02;51.50;99396.31;4979319;28;97785;-75
2020/12/12 07:16:30;;;;;;;40.37;25.53;;;;;;;9.04;51.88;99392.94;4981398;28;98266;-75
2020/12/12 07:18:57;;;;;;;40.55;25.95;;;;;;;9.06;51.16;99395.59;4977376;28;99175;-75
2020/12/12 07:21:25;;;;;;;40.78;26.00;;;;;;;9.08;51.71;99397.44;5003861;22;96695;-72
2020/12/12 07:23:52;;;;;;;41.15;25.42;;;;;;;9.07;51.81;99389.50;5005636;28;97436;-72
2020/12/12 07:26:19;;;;;;;39.55;26.25;;;;;;;9.07;51.91;99400.00;5007150;28;98043;-72
2020/12/12 07:28:47;;;;;;;42.05;25.67;;;;;;;9.07;51.50;99405.22;5006739;28;98573;-72
2020/12/12 07:31:16;;;;;;;39.88;25.67;;;;;;;9.08;51.58;99414.88;4995182;28;97271;-72
2020/12/12 07:33:46;;;;;;;39.80;26.38;;;;;;;9.10;51.72;99410.59;4987856;28;97138;-72
2020/12/12 07:36:14;;;;;;;40.60;26.23;;;;;;;9.10;51.24;99418.47;4987141;28;99408;-73
2020/12/12 07:38:42;;;;;;;40.55;25.73;;;;;;;9.11;51.45;99420.22;4990989;28;97803;-71
2020/12/12 07:41:11;;;;;;;37.35;24.73;;;;;;;9.11;51.40;99421.13;4981151;28;97850;-70
2020/12/12 07:43:53;;;;;;;37.65;25.02;;;;;;;9.13;51.13;99422.06;4986545;28;96948;-71
2020/12/12 07:46:37;;;;;;;38.40;24.53;;;;;;;9.14;51.16;99426.47;4987298;28;97941;-69
2020/12/12 07:49:23;;;;;;;38.15;24.40;;;;;;;9.17;51.73;99433.56;4981325;28;96978;-71
2020/12/12 07:51:58;;;;;;;40.97;24.92;;;;;;;9.17;51.66;99428.31;4986964;28;97435;-71
2020/12/12 07:54:35;;;;;;;36.80;24.77;;;;;;;9.19;51.19;99426.66;4984182;28;97116;-69
2020/12/12 07:57:04;;;;;;;38.10;25.53;;;;;;;9.17;51.04;99430.94;4987086;28;97916;-69
2020/12/12 07:59:31;;;;;;;33.03;20.23;;;;;;;8.84;52.21;99433.19;4986618;28;97740;-71
2020/12/12 08:02:03;;;;;;;31.25;18.48;;;;;;;8.71;52.70;99435.25;4988590;28;97174;-70
2020/12/12 08:04:31;;;;;;;26.42;17.58;;;;;;;8.64;52.75;99438.50;4988756;28;97214;-71
2020/12/12 08:07:08;;;;;;;27.75;17.90;;;;;;;8.53;52.61;99434.56;4986562;28;96750;-69
2020/12/12 08:09:36;;;;;;;29.85;17.45;;;;;;;8.46;53.13;99449.13;4982425;28;99274;-71
2020/12/12 08:12:04;;;;;;;28.75;17.50;;;;;;;8.37;53.33;99446.16;4987427;28;96923;-71
2020/12/12 08:14:42;;;;;;;30.75;17.27;;;;;;;8.30;53.36;99445.84;4987709;28;97169;-71
2020/12/12 08:17:11;;;;;;;34.17;19.02;;;;;;;8.26;53.41;99454.38;4984380;28;97842;-71
2020/12/12 08:19:46;;;;;;;27.75;17.08;;;;;;;8.21;53.65;99455.06;4986152;28;97203;-72
2020/12/12 08:22:17;;;;;;;27.77;17.92;;;;;;;8.17;53.87;99463.59;4982808;28;97593;-71
2020/12/12 08:24:45;;;;;;;26.25;17.55;;;;;;;8.18;53.55;99461.88;4982352;28;96555;-71
2020/12/12 08:27:13;;;;;;;27.33;17.33;;;;;;;8.13;53.87;99453.88;4984796;28;100811;-71
2020/12/12 08:29:43;;;;;;;27.55;17.17;;;;;;;8.12;53.76;99462.53;4988963;28;101379;-71
2020/12/12 08:32:26;;;;;;;28.38;16.95;;;;;;;8.08;53.96;99460.59;4991506;28;97353;-70
2020/12/12 08:35:08;;;;;;;26.45;16.48;;;;;;;8.08;53.81;99471.06;4979995;28;97437;-71
2020/12/12 08:37:35;;;;;;;28.73;17.33;;;;;;;8.07;54.04;99469.28;4984402;28;97842;-68
2020/12/12 08:40:06;;;;;;;25.40;16.02;;;;;;;8.08;53.93;99467.56;4987164;28;98025;-71
2020/12/12 08:42:33;;;;;;;29.20;16.58;;;;;;;8.07;54.04;99469.28;4981127;28;96877;-71
2020/12/12 08:45:15;;;;;;;28.67;18.25;;;;;;;8.05;54.17;99467.44;4979635;28;97333;-71
2020/12/12 08:47:43;;;;;;;28.00;17.50;;;;;;;8.05;53.88;99476.19;4985554;28;98141;-70
2020/12/12 08:50:14;;;;;;;31.58;18.67;;;;;;;8.03;53.69;99475.22;4978739;28;97768;-71
2020/12/12 08:52:43;;;;;;;25.70;15.90;;;;;;;8.06;53.62;99477.09;4979928;28;98003;-71
2020/12/12 08:55:13;;;;;;;28.73;18.08;;;;;;;8.08;53.85;99481.53;4981461;28;97333;-71
2020/12/12 08:57:56;;;;;;;25.05;16.73;;;;;;;8.08;54.12;99484.13;4985260;28;97966;-70
2020/12/12 09:00:26;;;;;;;27.58;17.13;;;;;;;8.11;54.05;99484.28;4981640;28;98199;-70
2020/12/12 09:03:00;;;;;;;33.37;22.67;;;;;;;8.29;53.65;99486.78;4980713;28;97278;-71
2020/12/12 09:05:34;;;;;;;25.75;17.92;;;;;;;8.21;54.16;99488.19;4985251;28;97464;-71
2020/12/12 09:08:18;;;;;;;28.00;16.70;;;;;;;8.20;54.15;99494.22;4983767;28;98119;-70
2020/12/12 09:10:46;;;;;;;25.20;16.55;;;;;;;8.23;54.01;99495.25;4979894;28;98045;-70
2020/12/12 09:13:13;;;;;;;28.13;17.98;;;;;;;8.25;53.83;99490.09;4984403;28;96843;-70
2020/12/12 09:15:41;;;;;;;23.52;15.85;;;;;;;8.26;53.60;99496.25;4981822;28;97310;-68
2020/12/12 09:18:09;;;;;;;26.85;16.65;;;;;;;8.27;54.00;99495.41;4983767;28;97813;-69
2020/12/12 09:20:37;;;;;;;28.85;16.77;;;;;;;8.26;54.01;99502.38;4984610;28;99181;-71
2020/12/12 09:23:04;;;;;;;24.27;16.15;;;;;;;8.28;53.97;99510.28;4986103;28;97152;-72
2020/12/12 09:25:32;;;;;;;32.80;20.05;;;;;;;8.29;53.78;99502.50;4987672;28;96663;-69
2020/12/12 09:27:59;;;;;;;31.23;18.63;;;;;;;8.31;54.01;99510.41;4985775;28;97962;-70
2020/12/12 09:30:27;;;;;;;33.38;21.33;;;;;;;8.33;53.81;99506.13;4986292;28;98189;-70
2020/12/12 09:32:55;;;;;;;27.90;17.33;;;;;;;8.33;53.96;99514.88;4984757;28;97112;-70
2020/12/12 09:35:23;;;;;;;28.17;16.90;;;;;;;8.36;53.80;99514.97;4985968;28;96716;-70
2020/12/12 09:37:50;;;;;;;26.40;16.92;;;;;;;8.38;53.71;99523.78;4985872;28;97966;-70
2020/12/12 09:40:18;;;;;;;25.00;15.57;;;;;;;8.41;53.78;99515.19;4986505;28;97888;-70
2020/12/12 09:42:45;;;;;;;23.88;16.52;;;;;;;8.43;53.92;99518.75;4983105;28;96736;-70
2020/12/12 09:45:13;;;;;;;23.65;16.10;;;;;;;8.44;53.92;99528.38;4987828;28;96887;-70
2020/12/12 09:47:40;;;;;;;26.77;15.93;;;;;;;8.43;53.68;99522.25;4984750;28;99964;-70
2020/12/12 09:50:08;;;;;;;22.83;15.57;;;;;;;8.45;53.82;99530.19;4981093;28;97768;-70
2020/12/12 09:52:37;;;;;;;23.67;15.80;;;;;;;8.46;53.79;99530.25;4982342;28;97251;-74
2020/12/12 09:55:04;;;;;;;30.58;21.15;;;;;;;8.66;54.04;99525.81;4988142;28;96815;-72
2020/12/12 09:57:32;;;;;;;25.52;16.67;;;;;;;8.57;53.91;99530.69;4990033;28;100975;-75
2020/12/12 09:59:59;;;;;;;24.23;16.30;;;;;;;8.55;53.99;99534.97;4985439;28;97791;-75
2020/12/12 10:02:27;;;;;;;23.88;15.30;;;;;;;8.54;53.93;99533.19;4987838;28;97634;-74
2020/12/12 10:04:55;;;;;;;24.92;16.02;;;;;;;8.53;54.12;99539.22;4989527;28;97119;-74
2020/12/12 10:07:22;;;;;;;26.33;15.30;;;;;;;8.54;53.94;99541.03;4981335;28;99438;-67
2020/12/12 10:09:51;;;;;;;22.95;15.40;;;;;;;8.56;54.35;99539.38;4989848;28;97325;-67
2020/12/12 10:12:18;;;;;;;24.23;15.70;;;;;;;8.57;54.31;99535.91;4988813;28;97029;-66
2020/12/12 10:14:45;;;;;;;44.37;25.70;;;;;;;8.67;53.66;99540.66;4990063;28;96822;-72
2020/12/12 10:17:13;;;;;;;41.15;26.52;;;;;;;8.85;53.93;99536.22;4972159;28;99286;-71
2020/12/12 10:19:41;;;;;;;33.75;22.70;;;;;;;8.95;53.77;99535.72;4990008;28;99671;-72
2020/12/12 10:22:08;;;;;;;29.48;20.50;;;;;;;9.07;54.27;99539.72;4990413;28;97073;-73
2020/12/12 10:24:35;;;;;;;29.92;20.83;;;;;;;9.17;54.32;99540.97;4992781;28;96752;-70
2020/12/12 10:27:04;;;;;;;31.38;21.70;;;;;;;9.25;53.79;99536.94;4985100;28;96882;-73
2020/12/12 10:29:31;;;;;;;29.88;19.85;;;;;;;9.34;53.82;99544.22;4987132;28;97927;-71
2020/12/12 10:32:00;;;;;;;28.50;20.23;;;;;;;9.41;53.98;99549.75;4984302;28;97189;-73
2020/12/12 10:34:28;;;;;;;28.33;20.55;;;;;;;9.47;53.55;99546.47;4986186;28;97260;-72
2020/12/12 10:36:56;;;;;;;44.72;29.85;;;;;;;9.54;53.95;99545.88;4998076;28;97869;-72
2020/12/12 10:39:28;;;;;;;48.45;28.83;;;;;;;9.57;53.54;99544.25;4986714;28;98163;-70
2020/12/12 10:41:58;;;;;;;37.63;25.38;;;;;;;9.64;53.17;99546.25;4977060;28;96905;-72
2020/12/12 10:44:26;;;;;;;29.98;20.48;;;;;;;9.69;53.17;99544.69;5000211;28;97977;-72
2020/12/12 10:46:54;;;;;;;28.92;19.88;;;;;;;9.73;53.24;99546.59;4987616;28;98049;-71
2020/12/12 10:49:22;;;;;;;25.73;16.13;;;;;;;9.53;54.22;99555.44;4987878;28;99159;-72
2020/12/12 10:51:53;;;;;;;21.55;14.90;;;;;;;9.47;53.42;99546.47;4987307;28;97234;-71
2020/12/12 10:54:25;;;;;;;21.48;15.23;;;;;;;9.44;53.96;99555.09;4989068;28;97382;-69
2020/12/12 10:56:53;;;;;;;22.00;14.88;;;;;;;9.37;53.72;99552.19;4988788;28;97918;-71
2020/12/12 10:59:20;;;;;;;22.77;14.32;;;;;;;9.35;53.95;99557.38;4985114;28;98992;-70
2020/12/12 11:01:52;;;;;;;22.35;15.05;;;;;;;9.31;54.04;99558.09;4983331;28;96792;-70
2020/12/12 11:04:20;;;;;;;24.63;14.63;;;;;;;9.27;54.45;99556.19;4987171;28;97135;-71
2020/12/12 11:06:48;;;;;;;20.13;14.20;;;;;;;9.25;53.59;99556.97;4981505;28;98422;-67
2020/12/12 11:09:16;;;;;;;22.42;14.50;;;;;;;9.23;54.19;99558.66;4982445;28;98209;-68
2020/12/12 11:11:43;;;;;;;25.83;18.27;;;;;;;9.40;53.75;99553.19;4986688;28;97287;-71
2020/12/12 11:14:11;;;;;;;29.00;19.43;;;;;;;9.51;53.57;99557.13;4983590;28;97846;-69
2020/12/12 11:16:38;;;;;;;27.83;19.77;;;;;;;9.58;53.45;99553.88;4985969;28;97960;-70
2020/12/12 11:19:08;;;;;;;27.88;19.98;;;;;;;9.67;53.36;99551.59;4979807;28;97626;-70
2020/12/12 11:21:35;;;;;;;29.00;20.55;;;;;;;9.74;53.29;99555.34;4984082;28;98320;-69
2020/12/12 11:24:02;;;;;;;28.20;18.80;;;;;;;9.80;53.23;99560.81;4981875;28;98027;-70
2020/12/12 11:26:30;;;;;;;28.75;19.80;;;;;;;9.86;52.93;99559.31;4982507;28;98147;-70
2020/12/12 11:28:57;;;;;;;28.90;19.13;;;;;;;9.91;52.65;99563.00;4984995;28;99263;-69
2020/12/12 11:31:25;;;;;;;28.65;19.63;;;;;;;9.95;52.76;99567.50;4985082;28;97581;-69
2020/12/12 11:33:58;;;;;;;27.67;19.17;;;;;;;10.01;52.54;99566.84;4988083;28;97265;-70
2020/12/12 11:36:44;;;;;;;26.90;18.98;;;;;;;10.02;52.57;99564.25;4986399;28;99115;-69